sensor_id;sensor_type;location;lat;lon;timestamp;P1;durP1;ratioP1;P2;durP2;ratioP2
50731;SDS011;36700;50.488;2.544;2023-06-22T00:00:51;4.85;;;2.40;;
50731;SDS011;36700;50.488;2.544;2023-06-22T00:03:18;4.65;;;2.40;;
50731;SDS011;36700;50.488;2.544;2023-06-22T00:05:45;4.15;;;2.15;;
50731;SDS011;36700;50.488;2.544;2023-06-22T00:08:11;3.60;;;2.17;;
50731;SDS011;36700;50.488;2.544;2023-06-22T00:10:37;3.78;;;2.22;;
50731;SDS011;36700;50.488;2.544;2023-06-22T00:13:03;4.63;;;2.50;;
50731;SDS011;36700;50.488;2.544;2023-06-22T00:15:32;3.55;;;2.10;;
50731;SDS011;36700;50.488;2.544;2023-06-22T00:17:58;5.32;;;2.55;;
50731;SDS011;36700;50.488;2.544;2023-06-22T00:20:25;4.95;;;2.60;;
50731;SDS011;36700;50.488;2.544;2023-06-22T00:22:55;4.25;;;2.28;;
50731;SDS011;36700;50.488;2.544;2023-06-22T00:25:22;4.63;;;2.47;;
50731;SDS011;36700;50.488;2.544;2023-06-22T00:27:49;5.53;;;2.50;;
50731;SDS011;36700;50.488;2.544;2023-06-22T00:30:16;5.40;;;2.30;;
50731;SDS011;36700;50.488;2.544;2023-06-22T00:32:43;5.20;;;2.53;;
50731;SDS011;36700;50.488;2.544;2023-06-22T00:35:09;4.82;;;2.45;;
50731;SDS011;36700;50.488;2.544;2023-06-22T00:37:36;4.28;;;2.40;;
50731;SDS011;36700;50.488;2.544;2023-06-22T00:40:02;5.00;;;2.30;;
50731;SDS011;36700;50.488;2.544;2023-06-22T00:42:30;5.18;;;2.53;;
50731;SDS011;36700;50.488;2.544;2023-06-22T00:44:56;4.88;;;2.15;;
50731;SDS011;36700;50.488;2.544;2023-06-22T00:47:22;5.22;;;2.63;;
50731;SDS011;36700;50.488;2.544;2023-06-22T00:49:49;4.75;;;2.35;;
50731;SDS011;36700;50.488;2.544;2023-06-22T00:52:24;5.15;;;2.40;;
50731;SDS011;36700;50.488;2.544;2023-06-22T00:54:55;6.50;;;2.33;;
50731;SDS011;36700;50.488;2.544;2023-06-22T00:57:23;4.60;;;2.40;;
50731;SDS011;36700;50.488;2.544;2023-06-22T00:59:53;4.93;;;2.20;;
50731;SDS011;36700;50.488;2.544;2023-06-22T01:02:20;6.32;;;2.40;;
50731;SDS011;36700;50.488;2.544;2023-06-22T01:04:46;5.03;;;2.70;;
50731;SDS011;36700;50.488;2.544;2023-06-22T01:07:16;4.10;;;2.40;;
50731;SDS011;36700;50.488;2.544;2023-06-22T01:12:48;3.60;;;2.20;;
50731;SDS011;36700;50.488;2.544;2023-06-22T01:15:30;5.90;;;2.47;;
50731;SDS011;36700;50.488;2.544;2023-06-22T01:17:59;4.47;;;2.33;;
50731;SDS011;36700;50.488;2.544;2023-06-22T01:20:29;6.70;;;2.30;;
50731;SDS011;36700;50.488;2.544;2023-06-22T01:26:08;5.00;;;2.42;;
50731;SDS011;36700;50.488;2.544;2023-06-22T01:28:48;5.20;;;2.20;;
50731;SDS011;36700;50.488;2.544;2023-06-22T01:31:16;4.93;;;2.28;;
50731;SDS011;36700;50.488;2.544;2023-06-22T01:33:47;4.13;;;2.15;;
50731;SDS011;36700;50.488;2.544;2023-06-22T01:36:16;3.63;;;2.17;;
50731;SDS011;36700;50.488;2.544;2023-06-22T01:38:43;3.90;;;2.35;;
50731;SDS011;36700;50.488;2.544;2023-06-22T01:41:11;3.72;;;2.20;;
50731;SDS011;36700;50.488;2.544;2023-06-22T01:43:38;3.95;;;2.25;;
50731;SDS011;36700;50.488;2.544;2023-06-22T01:46:04;4.63;;;2.30;;
50731;SDS011;36700;50.488;2.544;2023-06-22T01:48:30;5.38;;;2.58;;
50731;SDS011;36700;50.488;2.544;2023-06-22T01:50:57;3.78;;;2.30;;
50731;SDS011;36700;50.488;2.544;2023-06-22T01:53:24;5.25;;;2.47;;
50731;SDS011;36700;50.488;2.544;2023-06-22T01:55:50;6.63;;;2.58;;
50731;SDS011;36700;50.488;2.544;2023-06-22T01:58:16;4.82;;;2.45;;
50731;SDS011;36700;50.488;2.544;2023-06-22T02:00:44;4.88;;;2.25;;
50731;SDS011;36700;50.488;2.544;2023-06-22T02:03:29;6.88;;;2.70;;
50731;SDS011;36700;50.488;2.544;2023-06-22T02:06:04;4.88;;;2.40;;
50731;SDS011;36700;50.488;2.544;2023-06-22T02:08:39;6.28;;;2.40;;
50731;SDS011;36700;50.488;2.544;2023-06-22T02:11:08;5.85;;;2.50;;
50731;SDS011;36700;50.488;2.544;2023-06-22T02:13:36;6.78;;;2.60;;
50731;SDS011;36700;50.488;2.544;2023-06-22T02:16:03;6.35;;;2.65;;
50731;SDS011;36700;50.488;2.544;2023-06-22T02:18:29;4.60;;;2.58;;
50731;SDS011;36700;50.488;2.544;2023-06-22T02:20:55;4.20;;;2.50;;
50731;SDS011;36700;50.488;2.544;2023-06-22T02:23:21;5.75;;;2.60;;
50731;SDS011;36700;50.488;2.544;2023-06-22T02:25:47;6.30;;;2.50;;
50731;SDS011;36700;50.488;2.544;2023-06-22T02:28:13;4.80;;;2.40;;
50731;SDS011;36700;50.488;2.544;2023-06-22T02:30:39;4.43;;;2.30;;
50731;SDS011;36700;50.488;2.544;2023-06-22T02:33:05;4.80;;;2.58;;
50731;SDS011;36700;50.488;2.544;2023-06-22T02:35:31;6.68;;;3.00;;
50731;SDS011;36700;50.488;2.544;2023-06-22T02:37:58;4.90;;;2.58;;
50731;SDS011;36700;50.488;2.544;2023-06-22T02:40:25;4.68;;;2.50;;
50731;SDS011;36700;50.488;2.544;2023-06-22T02:42:51;5.18;;;2.67;;
50731;SDS011;36700;50.488;2.544;2023-06-22T02:45:17;5.25;;;2.78;;
50731;SDS011;36700;50.488;2.544;2023-06-22T02:47:42;6.55;;;2.70;;
50731;SDS011;36700;50.488;2.544;2023-06-22T02:50:10;6.15;;;2.60;;
50731;SDS011;36700;50.488;2.544;2023-06-22T02:52:36;4.95;;;2.60;;
50731;SDS011;36700;50.488;2.544;2023-06-22T02:55:02;6.05;;;2.65;;
50731;SDS011;36700;50.488;2.544;2023-06-22T02:57:28;4.85;;;2.50;;
50731;SDS011;36700;50.488;2.544;2023-06-22T02:59:53;5.07;;;2.72;;
50731;SDS011;36700;50.488;2.544;2023-06-22T03:02:20;5.43;;;2.80;;
50731;SDS011;36700;50.488;2.544;2023-06-22T03:04:47;5.63;;;2.95;;
50731;SDS011;36700;50.488;2.544;2023-06-22T03:07:14;5.75;;;2.72;;
50731;SDS011;36700;50.488;2.544;2023-06-22T03:09:43;7.25;;;2.80;;
50731;SDS011;36700;50.488;2.544;2023-06-22T03:12:09;6.25;;;3.00;;
50731;SDS011;36700;50.488;2.544;2023-06-22T03:14:35;5.90;;;2.70;;
50731;SDS011;36700;50.488;2.544;2023-06-22T03:17:00;6.45;;;3.00;;
50731;SDS011;36700;50.488;2.544;2023-06-22T03:19:28;6.10;;;3.00;;
50731;SDS011;36700;50.488;2.544;2023-06-22T03:21:59;3.78;;;2.50;;
50731;SDS011;36700;50.488;2.544;2023-06-22T03:24:26;5.30;;;2.70;;
50731;SDS011;36700;50.488;2.544;2023-06-22T03:26:54;6.25;;;3.00;;
50731;SDS011;36700;50.488;2.544;2023-06-22T03:29:20;5.75;;;3.05;;
50731;SDS011;36700;50.488;2.544;2023-06-22T03:31:46;6.15;;;2.85;;
50731;SDS011;36700;50.488;2.544;2023-06-22T03:34:12;5.20;;;2.50;;
50731;SDS011;36700;50.488;2.544;2023-06-22T03:36:38;6.00;;;2.80;;
50731;SDS011;36700;50.488;2.544;2023-06-22T03:39:04;6.57;;;2.90;;
50731;SDS011;36700;50.488;2.544;2023-06-22T03:41:30;6.47;;;3.20;;
50731;SDS011;36700;50.488;2.544;2023-06-22T03:43:55;8.10;;;3.03;;
50731;SDS011;36700;50.488;2.544;2023-06-22T03:46:21;6.43;;;2.88;;
50731;SDS011;36700;50.488;2.544;2023-06-22T03:48:47;5.90;;;2.90;;
50731;SDS011;36700;50.488;2.544;2023-06-22T03:51:13;5.93;;;2.72;;
50731;SDS011;36700;50.488;2.544;2023-06-22T03:53:39;5.82;;;2.83;;
50731;SDS011;36700;50.488;2.544;2023-06-22T03:56:05;5.10;;;3.05;;
50731;SDS011;36700;50.488;2.544;2023-06-22T03:58:31;6.72;;;2.88;;
50731;SDS011;36700;50.488;2.544;2023-06-22T04:00:58;6.82;;;2.95;;
50731;SDS011;36700;50.488;2.544;2023-06-22T04:03:25;5.68;;;2.72;;
50731;SDS011;36700;50.488;2.544;2023-06-22T04:05:51;5.63;;;2.80;;
50731;SDS011;36700;50.488;2.544;2023-06-22T04:08:17;6.35;;;2.92;;
50731;SDS011;36700;50.488;2.544;2023-06-22T04:10:43;6.53;;;3.00;;
50731;SDS011;36700;50.488;2.544;2023-06-22T04:13:10;7.10;;;3.08;;
50731;SDS011;36700;50.488;2.544;2023-06-22T04:15:36;5.78;;;2.90;;
50731;SDS011;36700;50.488;2.544;2023-06-22T04:18:02;5.40;;;3.10;;
50731;SDS011;36700;50.488;2.544;2023-06-22T04:20:28;5.78;;;2.78;;
50731;SDS011;36700;50.488;2.544;2023-06-22T04:22:54;7.95;;;3.22;;
50731;SDS011;36700;50.488;2.544;2023-06-22T04:25:20;6.55;;;2.95;;
50731;SDS011;36700;50.488;2.544;2023-06-22T04:27:48;6.32;;;3.10;;
50731;SDS011;36700;50.488;2.544;2023-06-22T04:30:14;6.10;;;2.83;;
50731;SDS011;36700;50.488;2.544;2023-06-22T04:32:43;7.32;;;3.33;;
50731;SDS011;36700;50.488;2.544;2023-06-22T04:35:10;5.95;;;3.20;;
50731;SDS011;36700;50.488;2.544;2023-06-22T04:37:37;6.80;;;3.38;;
50731;SDS011;36700;50.488;2.544;2023-06-22T04:40:04;6.57;;;3.28;;
50731;SDS011;36700;50.488;2.544;2023-06-22T04:42:33;5.85;;;2.70;;
50731;SDS011;36700;50.488;2.544;2023-06-22T04:45:00;8.00;;;3.10;;
50731;SDS011;36700;50.488;2.544;2023-06-22T04:47:26;7.03;;;3.28;;
50731;SDS011;36700;50.488;2.544;2023-06-22T04:49:51;8.32;;;3.55;;
50731;SDS011;36700;50.488;2.544;2023-06-22T04:52:17;7.10;;;3.10;;
50731;SDS011;36700;50.488;2.544;2023-06-22T04:54:45;7.90;;;3.33;;
50731;SDS011;36700;50.488;2.544;2023-06-22T04:57:16;7.18;;;3.42;;
50731;SDS011;36700;50.488;2.544;2023-06-22T04:59:42;6.18;;;3.00;;
50731;SDS011;36700;50.488;2.544;2023-06-22T05:02:08;8.80;;;3.42;;
50731;SDS011;36700;50.488;2.544;2023-06-22T05:04:34;7.22;;;3.30;;
50731;SDS011;36700;50.488;2.544;2023-06-22T05:07:06;7.13;;;3.05;;
50731;SDS011;36700;50.488;2.544;2023-06-22T05:09:32;8.38;;;3.60;;
50731;SDS011;36700;50.488;2.544;2023-06-22T05:11:59;7.90;;;3.60;;
50731;SDS011;36700;50.488;2.544;2023-06-22T05:14:28;7.45;;;3.33;;
50731;SDS011;36700;50.488;2.544;2023-06-22T05:16:55;6.97;;;3.40;;
50731;SDS011;36700;50.488;2.544;2023-06-22T05:19:24;6.90;;;3.28;;
50731;SDS011;36700;50.488;2.544;2023-06-22T05:21:57;8.73;;;3.30;;
50731;SDS011;36700;50.488;2.544;2023-06-22T05:24:22;7.43;;;3.70;;
50731;SDS011;36700;50.488;2.544;2023-06-22T05:26:48;6.93;;;3.63;;
50731;SDS011;36700;50.488;2.544;2023-06-22T05:29:14;5.22;;;3.00;;
50731;SDS011;36700;50.488;2.544;2023-06-22T05:31:40;6.70;;;3.38;;
50731;SDS011;36700;50.488;2.544;2023-06-22T05:34:07;6.45;;;3.40;;
50731;SDS011;36700;50.488;2.544;2023-06-22T05:36:33;7.22;;;3.55;;
50731;SDS011;36700;50.488;2.544;2023-06-22T05:38:59;8.25;;;3.65;;
50731;SDS011;36700;50.488;2.544;2023-06-22T05:41:25;7.55;;;3.15;;
50731;SDS011;36700;50.488;2.544;2023-06-22T05:43:51;8.23;;;3.75;;
50731;SDS011;36700;50.488;2.544;2023-06-22T05:46:17;5.82;;;3.00;;
50731;SDS011;36700;50.488;2.544;2023-06-22T05:48:44;5.43;;;3.17;;
50731;SDS011;36700;50.488;2.544;2023-06-22T05:51:10;7.13;;;3.38;;
50731;SDS011;36700;50.488;2.544;2023-06-22T05:53:36;6.40;;;3.13;;
50731;SDS011;36700;50.488;2.544;2023-06-22T05:56:02;8.05;;;3.42;;
50731;SDS011;36700;50.488;2.544;2023-06-22T05:58:28;6.90;;;3.25;;
50731;SDS011;36700;50.488;2.544;2023-06-22T06:00:54;5.80;;;2.85;;
50731;SDS011;36700;50.488;2.544;2023-06-22T06:03:20;7.00;;;3.28;;
50731;SDS011;36700;50.488;2.544;2023-06-22T06:05:46;7.72;;;3.45;;
50731;SDS011;36700;50.488;2.544;2023-06-22T06:08:12;6.35;;;3.33;;
50731;SDS011;36700;50.488;2.544;2023-06-22T06:10:38;7.03;;;3.08;;
50731;SDS011;36700;50.488;2.544;2023-06-22T06:13:04;6.22;;;3.13;;
50731;SDS011;36700;50.488;2.544;2023-06-22T06:15:31;6.90;;;3.30;;
50731;SDS011;36700;50.488;2.544;2023-06-22T06:17:57;5.93;;;2.83;;
50731;SDS011;36700;50.488;2.544;2023-06-22T06:20:24;6.22;;;3.10;;
50731;SDS011;36700;50.488;2.544;2023-06-22T06:22:51;6.65;;;3.38;;
50731;SDS011;36700;50.488;2.544;2023-06-22T06:25:18;5.45;;;2.90;;
50731;SDS011;36700;50.488;2.544;2023-06-22T06:27:46;10.25;;;3.00;;
50731;SDS011;36700;50.488;2.544;2023-06-22T06:30:13;8.65;;;3.00;;
50731;SDS011;36700;50.488;2.544;2023-06-22T06:32:40;8.48;;;3.10;;
50731;SDS011;36700;50.488;2.544;2023-06-22T06:35:07;13.85;;;3.40;;
50731;SDS011;36700;50.488;2.544;2023-06-22T06:37:38;9.73;;;3.45;;
50731;SDS011;36700;50.488;2.544;2023-06-22T06:40:08;6.78;;;2.90;;
50731;SDS011;36700;50.488;2.544;2023-06-22T06:42:39;8.18;;;2.83;;
50731;SDS011;36700;50.488;2.544;2023-06-22T06:45:18;6.25;;;2.85;;
50731;SDS011;36700;50.488;2.544;2023-06-22T06:47:48;8.75;;;3.13;;
50731;SDS011;36700;50.488;2.544;2023-06-22T06:50:15;8.00;;;3.13;;
50731;SDS011;36700;50.488;2.544;2023-06-22T06:52:42;7.53;;;3.63;;
50731;SDS011;36700;50.488;2.544;2023-06-22T06:55:08;8.70;;;3.72;;
50731;SDS011;36700;50.488;2.544;2023-06-22T06:57:38;8.43;;;3.85;;
50731;SDS011;36700;50.488;2.544;2023-06-22T07:00:08;9.50;;;3.47;;
50731;SDS011;36700;50.488;2.544;2023-06-22T07:02:40;7.28;;;3.22;;
50731;SDS011;36700;50.488;2.544;2023-06-22T07:05:07;10.27;;;3.90;;
50731;SDS011;36700;50.488;2.544;2023-06-22T07:07:34;7.57;;;3.28;;
50731;SDS011;36700;50.488;2.544;2023-06-22T07:10:00;9.07;;;3.25;;
50731;SDS011;36700;50.488;2.544;2023-06-22T07:12:26;11.75;;;3.85;;
50731;SDS011;36700;50.488;2.544;2023-06-22T07:14:53;10.93;;;3.63;;
50731;SDS011;36700;50.488;2.544;2023-06-22T07:17:19;7.80;;;3.10;;
50731;SDS011;36700;50.488;2.544;2023-06-22T07:19:45;5.95;;;3.00;;
50731;SDS011;36700;50.488;2.544;2023-06-22T07:22:11;8.55;;;3.15;;
50731;SDS011;36700;50.488;2.544;2023-06-22T07:24:37;6.90;;;3.72;;
50731;SDS011;36700;50.488;2.544;2023-06-22T07:27:03;8.40;;;3.47;;
50731;SDS011;36700;50.488;2.544;2023-06-22T07:29:30;7.20;;;3.38;;
50731;SDS011;36700;50.488;2.544;2023-06-22T07:31:57;5.53;;;3.13;;
50731;SDS011;36700;50.488;2.544;2023-06-22T07:34:23;6.80;;;3.40;;
50731;SDS011;36700;50.488;2.544;2023-06-22T07:36:49;8.23;;;3.47;;
50731;SDS011;36700;50.488;2.544;2023-06-22T07:39:15;8.75;;;3.30;;
50731;SDS011;36700;50.488;2.544;2023-06-22T07:41:41;6.40;;;3.15;;
50731;SDS011;36700;50.488;2.544;2023-06-22T07:44:07;9.75;;;3.78;;
50731;SDS011;36700;50.488;2.544;2023-06-22T07:46:33;8.85;;;3.55;;
50731;SDS011;36700;50.488;2.544;2023-06-22T07:48:59;7.25;;;3.40;;
50731;SDS011;36700;50.488;2.544;2023-06-22T07:51:26;6.05;;;3.10;;
50731;SDS011;36700;50.488;2.544;2023-06-22T07:53:52;6.03;;;3.17;;
50731;SDS011;36700;50.488;2.544;2023-06-22T07:56:18;7.13;;;3.28;;
50731;SDS011;36700;50.488;2.544;2023-06-22T07:58:46;9.10;;;3.88;;
50731;SDS011;36700;50.488;2.544;2023-06-22T08:01:13;5.63;;;3.17;;
50731;SDS011;36700;50.488;2.544;2023-06-22T08:03:39;8.23;;;3.35;;
50731;SDS011;36700;50.488;2.544;2023-06-22T08:06:05;7.68;;;3.30;;
50731;SDS011;36700;50.488;2.544;2023-06-22T08:08:35;7.00;;;3.53;;
50731;SDS011;36700;50.488;2.544;2023-06-22T08:11:01;9.07;;;3.72;;
50731;SDS011;36700;50.488;2.544;2023-06-22T08:13:27;6.38;;;2.92;;
50731;SDS011;36700;50.488;2.544;2023-06-22T08:15:53;5.25;;;2.80;;
50731;SDS011;36700;50.488;2.544;2023-06-22T08:18:19;6.05;;;2.92;;
50731;SDS011;36700;50.488;2.544;2023-06-22T08:20:45;7.93;;;3.35;;
50731;SDS011;36700;50.488;2.544;2023-06-22T08:23:11;6.78;;;3.60;;
50731;SDS011;36700;50.488;2.544;2023-06-22T08:25:37;7.05;;;3.42;;
50731;SDS011;36700;50.488;2.544;2023-06-22T08:28:03;7.78;;;3.65;;
50731;SDS011;36700;50.488;2.544;2023-06-22T08:30:30;6.03;;;3.00;;
50731;SDS011;36700;50.488;2.544;2023-06-22T08:32:56;8.02;;;3.20;;
50731;SDS011;36700;50.488;2.544;2023-06-22T08:35:22;7.72;;;3.60;;
50731;SDS011;36700;50.488;2.544;2023-06-22T08:37:49;7.32;;;3.40;;
50731;SDS011;36700;50.488;2.544;2023-06-22T08:40:21;8.05;;;3.47;;
50731;SDS011;36700;50.488;2.544;2023-06-22T08:42:47;6.43;;;3.10;;
50731;SDS011;36700;50.488;2.544;2023-06-22T08:45:13;7.63;;;3.30;;
50731;SDS011;36700;50.488;2.544;2023-06-22T08:47:40;6.20;;;3.20;;
50731;SDS011;36700;50.488;2.544;2023-06-22T08:50:07;4.80;;;2.88;;
50731;SDS011;36700;50.488;2.544;2023-06-22T08:52:34;5.80;;;3.03;;
50731;SDS011;36700;50.488;2.544;2023-06-22T08:55:00;8.57;;;3.50;;
50731;SDS011;36700;50.488;2.544;2023-06-22T08:57:27;6.82;;;3.00;;
50731;SDS011;36700;50.488;2.544;2023-06-22T08:59:53;7.95;;;3.33;;
50731;SDS011;36700;50.488;2.544;2023-06-22T09:02:19;6.55;;;3.10;;
50731;SDS011;36700;50.488;2.544;2023-06-22T09:04:45;6.45;;;3.20;;
50731;SDS011;36700;50.488;2.544;2023-06-22T09:07:11;4.90;;;2.78;;
50731;SDS011;36700;50.488;2.544;2023-06-22T09:09:37;7.15;;;3.53;;
50731;SDS011;36700;50.488;2.544;2023-06-22T09:12:03;6.25;;;3.25;;
50731;SDS011;36700;50.488;2.544;2023-06-22T09:14:30;7.68;;;3.70;;
50731;SDS011;36700;50.488;2.544;2023-06-22T09:16:56;6.60;;;3.45;;
50731;SDS011;36700;50.488;2.544;2023-06-22T09:19:22;6.32;;;3.33;;
50731;SDS011;36700;50.488;2.544;2023-06-22T09:21:48;7.88;;;3.30;;
50731;SDS011;36700;50.488;2.544;2023-06-22T09:24:13;7.30;;;3.40;;
50731;SDS011;36700;50.488;2.544;2023-06-22T09:26:39;7.05;;;3.45;;
50731;SDS011;36700;50.488;2.544;2023-06-22T09:29:05;6.38;;;3.25;;
50731;SDS011;36700;50.488;2.544;2023-06-22T09:31:31;7.43;;;3.22;;
50731;SDS011;36700;50.488;2.544;2023-06-22T09:33:57;7.10;;;3.20;;
50731;SDS011;36700;50.488;2.544;2023-06-22T09:36:23;8.32;;;3.40;;
50731;SDS011;36700;50.488;2.544;2023-06-22T09:38:49;6.25;;;3.30;;
50731;SDS011;36700;50.488;2.544;2023-06-22T09:41:21;6.13;;;2.88;;
50731;SDS011;36700;50.488;2.544;2023-06-22T09:43:47;7.70;;;3.42;;
50731;SDS011;36700;50.488;2.544;2023-06-22T09:46:16;5.82;;;3.10;;
50731;SDS011;36700;50.488;2.544;2023-06-22T09:48:42;9.35;;;3.45;;
50731;SDS011;36700;50.488;2.544;2023-06-22T09:51:09;17.52;;;3.53;;
50731;SDS011;36700;50.488;2.544;2023-06-22T09:53:35;7.70;;;3.28;;
50731;SDS011;36700;50.488;2.544;2023-06-22T09:56:01;6.53;;;3.20;;
50731;SDS011;36700;50.488;2.544;2023-06-22T09:58:27;7.70;;;3.42;;
50731;SDS011;36700;50.488;2.544;2023-06-22T10:00:53;8.10;;;3.45;;
50731;SDS011;36700;50.488;2.544;2023-06-22T10:03:20;7.80;;;3.13;;
50731;SDS011;36700;50.488;2.544;2023-06-22T10:05:49;7.10;;;3.30;;
50731;SDS011;36700;50.488;2.544;2023-06-22T10:08:15;5.28;;;2.78;;
50731;SDS011;36700;50.488;2.544;2023-06-22T10:10:41;5.75;;;2.90;;
50731;SDS011;36700;50.488;2.544;2023-06-22T10:13:08;5.70;;;2.80;;
50731;SDS011;36700;50.488;2.544;2023-06-22T10:15:36;7.72;;;3.05;;
50731;SDS011;36700;50.488;2.544;2023-06-22T10:18:02;6.65;;;3.15;;
50731;SDS011;36700;50.488;2.544;2023-06-22T10:20:28;7.28;;;3.15;;
50731;SDS011;36700;50.488;2.544;2023-06-22T10:22:55;6.95;;;3.10;;
50731;SDS011;36700;50.488;2.544;2023-06-22T10:25:21;7.65;;;3.08;;
50731;SDS011;36700;50.488;2.544;2023-06-22T10:27:47;6.05;;;2.78;;
50731;SDS011;36700;50.488;2.544;2023-06-22T10:30:13;6.68;;;3.08;;
50731;SDS011;36700;50.488;2.544;2023-06-22T10:32:40;6.35;;;3.00;;
50731;SDS011;36700;50.488;2.544;2023-06-22T10:35:08;6.10;;;2.88;;
50731;SDS011;36700;50.488;2.544;2023-06-22T10:37:36;5.65;;;2.67;;
50731;SDS011;36700;50.488;2.544;2023-06-22T10:40:02;7.88;;;3.38;;
50731;SDS011;36700;50.488;2.544;2023-06-22T10:42:29;6.20;;;2.90;;
50731;SDS011;36700;50.488;2.544;2023-06-22T10:44:55;5.00;;;2.53;;
50731;SDS011;36700;50.488;2.544;2023-06-22T10:47:21;5.93;;;2.72;;
50731;SDS011;36700;50.488;2.544;2023-06-22T10:49:47;7.00;;;2.83;;
50731;SDS011;36700;50.488;2.544;2023-06-22T10:52:13;4.65;;;2.38;;
50731;SDS011;36700;50.488;2.544;2023-06-22T10:54:39;6.50;;;2.83;;
50731;SDS011;36700;50.488;2.544;2023-06-22T10:57:07;4.82;;;2.50;;
50731;SDS011;36700;50.488;2.544;2023-06-22T10:59:33;5.68;;;3.10;;
50731;SDS011;36700;50.488;2.544;2023-06-22T11:01:59;5.10;;;2.58;;
50731;SDS011;36700;50.488;2.544;2023-06-22T11:04:25;5.90;;;2.85;;
50731;SDS011;36700;50.488;2.544;2023-06-22T11:06:51;5.07;;;2.55;;
50731;SDS011;36700;50.488;2.544;2023-06-22T11:09:17;6.03;;;2.88;;
50731;SDS011;36700;50.488;2.544;2023-06-22T11:11:49;4.93;;;2.60;;
50731;SDS011;36700;50.488;2.544;2023-06-22T11:14:16;6.18;;;2.67;;
50731;SDS011;36700;50.488;2.544;2023-06-22T11:16:42;5.60;;;2.80;;
50731;SDS011;36700;50.488;2.544;2023-06-22T11:19:08;6.70;;;2.72;;
50731;SDS011;36700;50.488;2.544;2023-06-22T11:21:34;4.95;;;2.65;;
50731;SDS011;36700;50.488;2.544;2023-06-22T11:24:00;5.30;;;2.53;;
50731;SDS011;36700;50.488;2.544;2023-06-22T11:26:26;4.60;;;2.40;;
50731;SDS011;36700;50.488;2.544;2023-06-22T11:28:55;5.82;;;2.85;;
50731;SDS011;36700;50.488;2.544;2023-06-22T11:31:21;5.30;;;2.65;;
50731;SDS011;36700;50.488;2.544;2023-06-22T11:33:47;5.78;;;2.70;;
50731;SDS011;36700;50.488;2.544;2023-06-22T11:36:13;5.63;;;2.85;;
50731;SDS011;36700;50.488;2.544;2023-06-22T11:38:41;4.25;;;2.33;;
50731;SDS011;36700;50.488;2.544;2023-06-22T11:41:08;4.38;;;2.40;;
50731;SDS011;36700;50.488;2.544;2023-06-22T11:43:34;4.32;;;2.60;;
50731;SDS011;36700;50.488;2.544;2023-06-22T11:46:02;6.80;;;2.70;;
50731;SDS011;36700;50.488;2.544;2023-06-22T11:48:28;6.00;;;2.58;;
50731;SDS011;36700;50.488;2.544;2023-06-22T11:50:54;4.53;;;2.50;;
50731;SDS011;36700;50.488;2.544;2023-06-22T11:53:21;7.40;;;2.88;;
50731;SDS011;36700;50.488;2.544;2023-06-22T11:55:50;3.95;;;2.25;;
50731;SDS011;36700;50.488;2.544;2023-06-22T11:58:16;5.68;;;2.95;;
50731;SDS011;36700;50.488;2.544;2023-06-22T12:00:42;5.65;;;2.67;;
50731;SDS011;36700;50.488;2.544;2023-06-22T12:03:08;4.32;;;2.40;;
50731;SDS011;36700;50.488;2.544;2023-06-22T12:05:35;4.00;;;2.33;;
50731;SDS011;36700;50.488;2.544;2023-06-22T12:08:00;5.57;;;2.70;;
50731;SDS011;36700;50.488;2.544;2023-06-22T12:10:27;5.50;;;2.53;;
50731;SDS011;36700;50.488;2.544;2023-06-22T12:12:54;5.68;;;2.63;;
50731;SDS011;36700;50.488;2.544;2023-06-22T12:15:20;6.40;;;2.65;;
50731;SDS011;36700;50.488;2.544;2023-06-22T12:17:46;4.53;;;2.47;;
50731;SDS011;36700;50.488;2.544;2023-06-22T12:20:13;4.63;;;2.47;;
50731;SDS011;36700;50.488;2.544;2023-06-22T12:22:40;4.85;;;2.58;;
50731;SDS011;36700;50.488;2.544;2023-06-22T12:25:07;4.25;;;2.50;;
50731;SDS011;36700;50.488;2.544;2023-06-22T12:27:33;4.30;;;2.20;;
50731;SDS011;36700;50.488;2.544;2023-06-22T12:30:00;4.90;;;2.50;;
50731;SDS011;36700;50.488;2.544;2023-06-22T12:32:26;5.00;;;2.30;;
50731;SDS011;36700;50.488;2.544;2023-06-22T12:34:52;5.75;;;2.60;;
50731;SDS011;36700;50.488;2.544;2023-06-22T12:37:18;5.20;;;2.47;;
50731;SDS011;36700;50.488;2.544;2023-06-22T12:39:44;5.18;;;2.40;;
50731;SDS011;36700;50.488;2.544;2023-06-22T12:42:10;4.72;;;2.55;;
50731;SDS011;36700;50.488;2.544;2023-06-22T12:44:38;7.88;;;2.67;;
50731;SDS011;36700;50.488;2.544;2023-06-22T12:47:05;5.57;;;2.72;;
50731;SDS011;36700;50.488;2.544;2023-06-22T12:49:31;5.15;;;2.70;;
50731;SDS011;36700;50.488;2.544;2023-06-22T12:51:57;6.80;;;3.08;;
50731;SDS011;36700;50.488;2.544;2023-06-22T12:54:23;5.85;;;2.58;;
50731;SDS011;36700;50.488;2.544;2023-06-22T12:56:52;5.63;;;2.67;;
50731;SDS011;36700;50.488;2.544;2023-06-22T12:59:18;4.78;;;2.50;;
50731;SDS011;36700;50.488;2.544;2023-06-22T13:01:43;5.18;;;2.58;;
50731;SDS011;36700;50.488;2.544;2023-06-22T13:04:11;5.22;;;2.72;;
50731;SDS011;36700;50.488;2.544;2023-06-22T13:06:43;6.35;;;2.72;;
50731;SDS011;36700;50.488;2.544;2023-06-22T13:09:15;7.65;;;3.20;;
50731;SDS011;36700;50.488;2.544;2023-06-22T13:11:42;5.53;;;2.42;;
50731;SDS011;36700;50.488;2.544;2023-06-22T13:14:08;5.30;;;2.75;;
50731;SDS011;36700;50.488;2.544;2023-06-22T13:16:35;5.30;;;2.70;;
50731;SDS011;36700;50.488;2.544;2023-06-22T13:19:01;5.18;;;2.70;;
50731;SDS011;36700;50.488;2.544;2023-06-22T13:21:26;5.30;;;2.75;;
50731;SDS011;36700;50.488;2.544;2023-06-22T13:23:52;5.72;;;2.60;;
50731;SDS011;36700;50.488;2.544;2023-06-22T13:26:18;6.13;;;2.70;;
50731;SDS011;36700;50.488;2.544;2023-06-22T13:28:46;6.40;;;2.70;;
50731;SDS011;36700;50.488;2.544;2023-06-22T13:31:12;5.40;;;2.70;;
50731;SDS011;36700;50.488;2.544;2023-06-22T13:33:38;4.95;;;2.50;;
50731;SDS011;36700;50.488;2.544;2023-06-22T13:36:06;7.32;;;2.70;;
50731;SDS011;36700;50.488;2.544;2023-06-22T13:38:34;5.10;;;2.55;;
50731;SDS011;36700;50.488;2.544;2023-06-22T13:41:04;4.60;;;2.53;;
50731;SDS011;36700;50.488;2.544;2023-06-22T13:43:31;5.63;;;2.67;;
50731;SDS011;36700;50.488;2.544;2023-06-22T13:45:57;5.90;;;2.78;;
50731;SDS011;36700;50.488;2.544;2023-06-22T13:48:23;6.05;;;2.90;;
50731;SDS011;36700;50.488;2.544;2023-06-22T13:50:51;6.45;;;2.58;;
50731;SDS011;36700;50.488;2.544;2023-06-22T13:53:18;6.05;;;2.88;;
50731;SDS011;36700;50.488;2.544;2023-06-22T13:55:44;5.35;;;2.80;;
50731;SDS011;36700;50.488;2.544;2023-06-22T13:58:10;4.72;;;2.50;;
50731;SDS011;36700;50.488;2.544;2023-06-22T14:00:36;5.30;;;2.80;;
50731;SDS011;36700;50.488;2.544;2023-06-22T14:03:02;6.32;;;2.88;;
50731;SDS011;36700;50.488;2.544;2023-06-22T14:05:28;6.63;;;2.83;;
50731;SDS011;36700;50.488;2.544;2023-06-22T14:07:54;6.95;;;2.83;;
50731;SDS011;36700;50.488;2.544;2023-06-22T14:10:20;6.85;;;3.00;;
50731;SDS011;36700;50.488;2.544;2023-06-22T14:12:46;5.63;;;2.83;;
50731;SDS011;36700;50.488;2.544;2023-06-22T14:15:12;6.20;;;2.75;;
50731;SDS011;36700;50.488;2.544;2023-06-22T14:17:38;6.68;;;2.97;;
50731;SDS011;36700;50.488;2.544;2023-06-22T14:20:04;5.03;;;2.85;;
50731;SDS011;36700;50.488;2.544;2023-06-22T14:22:33;6.53;;;2.90;;
50731;SDS011;36700;50.488;2.544;2023-06-22T14:25:00;7.45;;;3.08;;
50731;SDS011;36700;50.488;2.544;2023-06-22T14:27:27;7.60;;;3.30;;
50731;SDS011;36700;50.488;2.544;2023-06-22T14:29:53;7.68;;;3.33;;
50731;SDS011;36700;50.488;2.544;2023-06-22T14:32:19;6.93;;;3.33;;
50731;SDS011;36700;50.488;2.544;2023-06-22T14:34:45;7.38;;;3.35;;
50731;SDS011;36700;50.488;2.544;2023-06-22T14:37:11;6.55;;;3.08;;
50731;SDS011;36700;50.488;2.544;2023-06-22T14:39:38;6.80;;;3.25;;
50731;SDS011;36700;50.488;2.544;2023-06-22T14:42:08;6.13;;;3.03;;
50731;SDS011;36700;50.488;2.544;2023-06-22T14:44:34;7.20;;;3.17;;
50731;SDS011;36700;50.488;2.544;2023-06-22T14:47:00;8.10;;;3.22;;
50731;SDS011;36700;50.488;2.544;2023-06-22T14:49:26;7.25;;;2.95;;
50731;SDS011;36700;50.488;2.544;2023-06-22T14:51:52;5.60;;;2.60;;